Time;durP1;ratioP1;P1;durP2;ratioP2;P2;SDS_P1;SDS_P2;PMS_P1;PMS_P2;Temp;Humidity;BMP_temperature;BMP_pressure;BME280_temperature;BME280_humidity;BME280_pressure;Samples;Min_cycle;Max_cycle;Signal;HPM_P1;HPM_P2
2023/09/04 00:01:39;;;;;;;2.50;2.30;;;22.70;98.60;;;;;;5052772;28;20624;-85
2023/09/04 00:04:06;;;;;;;2.70;2.50;;;22.70;98.70;;;;;;5020490;28;20184;-85
2023/09/04 00:06:34;;;;;;;2.43;2.23;;;22.70;98.50;;;;;;5020219;28;20455;-85
2023/09/04 00:09:00;;;;;;;2.80;2.43;;;22.60;98.70;;;;;;5021148;28;20169;-85
2023/09/04 00:11:26;;;;;;;2.63;2.43;;;22.70;98.60;;;;;;5020449;28;20234;-85
2023/09/04 00:13:53;;;;;;;2.60;2.33;;;22.70;98.60;;;;;;5019692;28;20169;-85
2023/09/04 00:16:19;;;;;;;3.00;2.70;;;22.60;98.80;;;;;;5020124;28;20173;-85
2023/09/04 00:18:45;;;;;;;2.30;2.10;;;22.60;98.40;;;;;;5019923;28;20310;-85
2023/09/04 00:21:11;;;;;;;2.40;2.20;;;22.60;98.60;;;;;;5019625;28;20239;-85
2023/09/04 00:23:37;;;;;;;2.40;2.20;;;22.60;98.60;;;;;;5053682;28;20565;-85
2023/09/04 00:26:02;;;;;;;2.30;2.10;;;22.60;98.60;;;;;;5046612;28;20606;-85
2023/09/04 00:28:28;;;;;;;2.50;2.30;;;22.60;98.60;;;;;;5037126;28;20176;-85
2023/09/04 00:30:56;;;;;;;2.40;2.20;;;22.50;98.60;;;;;;5052221;28;20192;-85
2023/09/04 00:33:22;;;;;;;2.40;2.20;;;22.50;98.60;;;;;;5035892;28;20264;-85
2023/09/04 00:35:48;;;;;;;2.77;2.50;;;22.50;98.60;;;;;;5018319;28;20419;-85
2023/09/04 00:38:14;;;;;;;2.30;2.10;;;22.50;98.60;;;;;;5019719;28;20169;-85
2023/09/04 00:40:39;;;;;;;2.33;2.13;;;22.50;98.60;;;;;;5052308;28;20567;-85
2023/09/04 00:43:08;;;;;;;2.50;2.30;;;22.50;98.70;;;;;;5018458;28;20518;-84
2023/09/04 00:45:35;;;;;;;2.40;2.20;;;22.50;98.60;;;;;;5051729;28;20260;-85
2023/09/04 00:48:03;;;;;;;2.43;2.23;;;22.50;98.60;;;;;;5017757;28;20173;-84
2023/09/04 00:50:30;;;;;;;2.73;2.40;;;22.50;98.50;;;;;;5018562;28;20183;-85
2023/09/04 00:52:58;;;;;;;2.53;2.33;;;22.40;98.60;;;;;;5035747;28;20642;-85
2023/09/04 00:55:25;;;;;;;4.50;2.27;;;22.40;98.60;;;;;;5017731;28;20426;-85
2023/09/04 00:57:55;;;;;;;2.20;2.00;;;22.40;98.70;;;;;;5018385;28;20204;-85
2023/09/04 01:00:27;;;;;;;2.70;2.50;;;22.40;98.50;;;;;;5019545;28;20197;-85
2023/09/04 01:02:53;;;;;;;2.70;2.33;;;22.40;98.50;;;;;;5019538;28;20414;-85
2023/09/04 01:05:19;;;;;;;2.60;2.40;;;22.40;98.50;;;;;;5018778;28;20562;-85
2023/09/04 01:07:45;;;;;;;3.13;2.37;;;22.40;98.40;;;;;;5019992;28;20186;-85
2023/09/04 01:10:13;;;;;;;2.37;2.17;;;22.40;98.40;;;;;;5019484;28;20216;-85
2023/09/04 01:12:55;;;;;;;2.40;2.20;;;22.40;98.50;;;;;;5036729;28;20193;-85
2023/09/04 01:15:21;;;;;;;2.40;2.20;;;22.40;98.50;;;;;;5018025;28;20293;-85
2023/09/04 01:17:48;;;;;;;2.13;2.00;;;22.40;98.40;;;;;;5017659;28;20462;-85
2023/09/04 01:20:28;;;;;;;2.30;2.10;;;22.40;98.50;;;;;;5018603;28;20216;-85
2023/09/04 01:22:55;;;;;;;2.60;2.40;;;22.30;98.40;;;;;;5019248;28;20176;-85
2023/09/04 01:25:33;;;;;;;2.43;2.23;;;22.30;98.40;;;;;;5036554;28;20160;-85
2023/09/04 01:28:16;;;;;;;2.40;2.20;;;22.30;98.40;;;;;;5036087;28;20203;-84
2023/09/04 01:31:11;;;;;;;2.53;2.10;;;22.30;98.40;;;;;;5018869;28;20173;-85
2023/09/04 01:33:47;;;;;;;2.10;1.90;;;22.30;98.50;;;;;;5036447;28;20214;-84
2023/09/04 01:36:14;;;;;;;3.47;2.13;;;22.20;98.40;;;;;;5018646;28;20186;-84
2023/09/04 01:38:42;;;;;;;2.40;2.20;;;22.20;98.50;;;;;;5018840;28;20173;-84
2023/09/04 01:41:08;;;;;;;2.23;2.00;;;22.20;98.40;;;;;;5019399;28;20207;-84
2023/09/04 01:43:34;;;;;;;2.83;2.20;;;22.20;98.50;;;;;;5036235;28;20184;-85
2023/09/04 01:46:01;;;;;;;2.30;2.10;;;22.20;98.40;;;;;;5018997;28;20173;-85
2023/09/04 01:48:27;;;;;;;2.20;2.00;;;22.20;98.40;;;;;;5036513;28;20168;-85
2023/09/04 01:50:54;;;;;;;3.33;2.10;;;22.20;98.30;;;;;;5018626;28;20270;-85
2023/09/04 01:53:20;;;;;;;2.53;1.97;;;22.20;98.30;;;;;;5019883;28;20288;-85
2023/09/04 01:55:45;;;;;;;2.20;2.00;;;22.20;98.40;;;;;;5035332;28;20266;-85
2023/09/04 01:58:11;;;;;;;2.40;2.20;;;22.20;98.20;;;;;;5018236;28;20561;-85
2023/09/04 02:00:37;;;;;;;2.20;2.00;;;22.20;98.20;;;;;;5016771;28;20196;-85
2023/09/04 02:03:03;;;;;;;2.73;2.53;;;22.20;98.20;;;;;;5017543;28;20211;-85
2023/09/04 02:05:29;;;;;;;2.23;2.03;;;22.20;98.20;;;;;;5016312;28;20199;-85
2023/09/04 02:07:55;;;;;;;2.17;1.97;;;22.10;98.30;;;;;;5015064;28;20169;-85
2023/09/04 02:10:26;;;;;;;3.13;2.00;;;22.10;98.30;;;;;;5014355;28;20180;-85
2023/09/04 02:12:53;;;;;;;1.97;1.87;;;22.10;98.40;;;;;;5015197;28;20180;-85
2023/09/04 02:15:19;;;;;;;3.33;2.00;;;22.00;98.40;;;;;;5015384;28;20179;-85
2023/09/04 02:17:44;;;;;;;2.23;2.03;;;22.10;98.40;;;;;;5033257;28;20361;-85
2023/09/04 02:20:10;;;;;;;2.63;2.17;;;22.00;98.40;;;;;;5016363;28;20196;-85
2023/09/04 02:22:36;;;;;;;2.23;2.03;;;22.00;98.30;;;;;;5016619;28;20222;-85
2023/09/04 02:25:03;;;;;;;2.13;1.83;;;22.00;98.30;;;;;;5034147;28;20507;-85
2023/09/04 02:27:28;;;;;;;2.00;1.90;;;22.00;98.30;;;;;;5035021;28;20167;-85
2023/09/04 02:29:54;;;;;;;2.43;2.23;;;22.00;98.30;;;;;;5035781;28;20255;-85
2023/09/04 02:32:20;;;;;;;1.90;1.80;;;22.00;98.30;;;;;;5051087;28;20243;-85
2023/09/04 02:34:46;;;;;;;2.47;2.20;;;22.00;98.30;;;;;;5051194;28;20173;-85
2023/09/04 02:37:12;;;;;;;2.10;1.90;;;22.00;98.30;;;;;;5033875;28;20188;-85
2023/09/04 02:39:39;;;;;;;2.53;2.23;;;22.00;98.30;;;;;;5016674;28;20201;-85
2023/09/04 02:42:05;;;;;;;2.20;2.00;;;22.00;98.30;;;;;;5015912;28;20562;-85
2023/09/04 02:44:31;;;;;;;1.93;1.77;;;22.00;98.30;;;;;;5048647;28;20188;-85
2023/09/04 02:46:57;;;;;;;2.33;2.00;;;21.90;98.20;;;;;;5048728;28;20667;-85
2023/09/04 02:49:33;;;;;;;2.20;2.00;;;22.00;98.20;;;;;;5047775;28;20175;-85
2023/09/04 02:51:59;;;;;;;2.20;2.00;;;22.00;98.20;;;;;;5031870;28;20471;-85
2023/09/04 02:54:25;;;;;;;2.33;2.00;;;21.90;98.10;;;;;;5015528;28;20207;-84
2023/09/04 02:56:51;;;;;;;2.10;1.97;;;21.90;98.10;;;;;;5034179;28;20173;-85
2023/09/04 02:59:17;;;;;;;2.20;2.00;;;21.90;98.10;;;;;;5050311;28;20562;-85
2023/09/04 03:01:42;;;;;;;2.00;1.90;;;21.90;98.10;;;;;;5017294;28;20176;-84
2023/09/04 03:04:14;;;;;;;1.97;1.87;;;21.90;98.10;;;;;;5048571;28;20530;-84
2023/09/04 03:06:39;;;;;;;2.40;2.20;;;21.90;98.00;;;;;;5016590;28;20172;-85
2023/09/04 03:09:05;;;;;;;2.77;1.77;;;21.90;98.10;;;;;;5033338;28;20364;-85
2023/09/04 03:11:31;;;;;;;2.30;2.10;;;21.80;98.10;;;;;;5049833;28;20183;-85
2023/09/04 03:13:57;;;;;;;2.20;2.00;;;21.80;98.00;;;;;;5036571;28;20160;-85
2023/09/04 03:16:23;;;;;;;2.20;2.00;;;21.80;98.00;;;;;;5019207;28;20586;-85
2023/09/04 03:18:48;;;;;;;2.40;2.20;;;21.90;98.00;;;;;;5018389;28;20332;-85
2023/09/04 03:21:14;;;;;;;2.07;1.87;;;21.80;98.00;;;;;;5035913;28;20202;-85
2023/09/04 03:23:40;;;;;;;2.27;1.90;;;21.80;98.00;;;;;;5018722;28;20356;-85
2023/09/04 03:26:06;;;;;;;2.10;1.90;;;21.80;98.00;;;;;;5052263;28;20246;-85
2023/09/04 03:28:33;;;;;;;2.77;1.80;;;21.80;98.00;;;;;;5052654;28;20241;-85
2023/09/04 03:30:59;;;;;;;2.20;2.00;;;21.70;98.00;;;;;;5019707;28;20634;-85
2023/09/04 03:33:24;;;;;;;2.00;1.90;;;21.80;98.00;;;;;;5019311;28;20267;-85
2023/09/04 03:35:50;;;;;;;2.30;2.00;;;21.70;98.00;;;;;;5018793;28;20528;-85
2023/09/04 03:38:16;;;;;;;2.10;1.90;;;21.70;97.90;;;;;;5018974;28;20188;-85
2023/09/04 03:40:42;;;;;;;2.23;2.03;;;21.70;97.90;;;;;;5035302;28;20200;-85
2023/09/04 03:43:07;;;;;;;1.87;1.70;;;21.70;97.90;;;;;;5036330;28;20225;-85
2023/09/04 03:45:34;;;;;;;2.20;2.00;;;21.70;98.00;;;;;;5019224;28;20169;-85
2023/09/04 03:48:01;;;;;;;1.93;1.83;;;21.70;97.90;;;;;;5028015;28;20169;-85
2023/09/04 03:50:27;;;;;;;1.90;1.80;;;21.70;97.90;;;;;;5036026;28;20223;-85
2023/09/04 03:52:53;;;;;;;1.97;1.80;;;21.60;97.90;;;;;;5051233;28;20570;-85
2023/09/04 03:55:19;;;;;;;2.23;2.00;;;21.70;97.90;;;;;;5017665;28;20209;-85
2023/09/04 03:57:51;;;;;;;1.90;1.70;;;21.70;97.90;;;;;;5036917;28;20281;-85
2023/09/04 04:00:18;;;;;;;1.80;1.70;;;21.70;97.80;;;;;;5051302;28;20207;-85
2023/09/04 04:02:45;;;;;;;2.20;2.00;;;21.70;97.80;;;;;;5018658;28;20170;-85
2023/09/04 04:05:12;;;;;;;2.10;1.90;;;21.70;97.80;;;;;;5036057;28;20267;-85
2023/09/04 04:07:39;;;;;;;1.80;1.70;;;21.60;97.80;;;;;;5018091;28;20256;-85
2023/09/04 04:10:07;;;;;;;1.73;1.63;;;21.60;97.80;;;;;;5017290;28;20176;-85
2023/09/04 04:12:34;;;;;;;1.90;1.80;;;21.60;97.80;;;;;;5018030;28;20461;-85
2023/09/04 04:15:06;;;;;;;1.80;1.70;;;21.60;97.80;;;;;;5035551;28;20165;-85
2023/09/04 04:17:36;;;;;;;2.00;1.80;;;21.60;97.70;;;;;;5017193;28;20279;-85
2023/09/04 04:20:12;;;;;;;1.70;1.60;;;21.60;97.70;;;;;;5016678;28;20629;-85
2023/09/04 04:22:39;;;;;;;1.80;1.70;;;21.60;97.60;;;;;;5015991;28;20210;-85
2023/09/04 04:25:05;;;;;;;2.67;2.20;;;21.60;97.70;;;;;;5016840;28;20165;-85
2023/09/04 04:27:31;;;;;;;1.87;1.77;;;21.60;97.60;;;;;;5017064;28;20168;-85
2023/09/04 04:29:57;;;;;;;1.83;1.73;;;21.60;97.60;;;;;;5033144;28;20367;-85
2023/09/04 04:32:23;;;;;;;1.93;1.80;;;21.50;97.50;;;;;;5048824;28;20179;-85
2023/09/04 04:34:49;;;;;;;2.13;1.93;;;21.60;97.60;;;;;;5017242;28;20264;-85
2023/09/04 04:37:15;;;;;;;1.90;1.80;;;21.50;97.60;;;;;;5016855;28;20255;-85
2023/09/04 04:39:44;;;;;;;1.90;1.80;;;21.50;97.60;;;;;;5034354;28;20529;-85
2023/09/04 04:42:09;;;;;;;2.33;1.80;;;21.50;97.60;;;;;;5049467;28;20181;-85
2023/09/04 04:44:35;;;;;;;2.20;1.97;;;21.50;97.50;;;;;;5016489;28;20199;-85
2023/09/04 04:47:01;;;;;;;1.80;1.70;;;21.50;97.50;;;;;;5049201;28;20173;-85
2023/09/04 04:49:27;;;;;;;1.93;1.83;;;21.50;97.50;;;;;;5015780;28;20238;-85
2023/09/04 04:51:54;;;;;;;1.80;1.70;;;21.50;97.40;;;;;;5032809;28;20177;-85
2023/09/04 04:54:20;;;;;;;2.00;1.87;;;21.50;97.50;;;;;;5015357;28;20185;-85
2023/09/04 04:56:49;;;;;;;2.10;1.90;;;21.50;97.40;;;;;;5013313;28;20179;-85
2023/09/04 04:59:16;;;;;;;1.77;1.67;;;21.50;97.40;;;;;;5031192;28;20200;-85
2023/09/04 05:01:43;;;;;;;2.10;1.90;;;21.50;97.40;;;;;;5014667;28;20574;-85
2023/09/04 05:04:09;;;;;;;2.10;1.60;;;21.40;97.40;;;;;;5033129;28;20516;-85
2023/09/04 05:06:35;;;;;;;2.10;1.73;;;21.40;97.30;;;;;;5031703;28;20176;-85
2023/09/04 05:09:00;;;;;;;1.83;1.73;;;21.40;97.30;;;;;;5012982;28;20240;-85
2023/09/04 05:11:26;;;;;;;1.97;1.87;;;21.40;97.40;;;;;;5011373;28;20187;-85
2023/09/04 05:13:52;;;;;;;1.80;1.70;;;21.40;97.30;;;;;;5029811;28;20367;-85
2023/09/04 05:16:18;;;;;;;2.10;1.77;;;21.40;97.30;;;;;;5046027;28;20247;-85
2023/09/04 05:18:44;;;;;;;1.80;1.70;;;21.40;97.30;;;;;;5045848;28;20189;-85
2023/09/04 05:21:10;;;;;;;1.83;1.73;;;21.40;97.30;;;;;;5012023;28;20205;-85
2023/09/04 05:23:36;;;;;;;1.80;1.70;;;21.40;97.30;;;;;;5014093;28;20247;-85
2023/09/04 05:26:02;;;;;;;2.30;2.10;;;21.40;97.20;;;;;;5032157;28;20173;-85
2023/09/04 05:28:28;;;;;;;1.90;1.80;;;21.40;97.20;;;;;;5031428;28;20436;-85
2023/09/04 05:30:54;;;;;;;1.90;1.80;;;21.40;97.20;;;;;;5047394;28;20184;-86
2023/09/04 05:33:20;;;;;;;1.90;1.80;;;21.40;97.20;;;;;;5029569;28;20173;-85
2023/09/04 05:35:55;;;;;;;2.13;2.00;;;21.40;97.20;;;;;;5011095;28;20467;-85
2023/09/04 05:38:21;;;;;;;1.93;1.80;;;21.40;97.30;;;;;;5008946;28;20176;-85
2023/09/04 05:40:54;;;;;;;2.17;1.80;;;21.40;97.40;;;;;;5027606;28;20254;-85
2023/09/04 05:43:20;;;;;;;2.20;2.00;;;21.40;97.40;;;;;;5025500;28;20264;-85
2023/09/04 05:45:49;;;;;;;3.03;2.03;;;21.40;97.20;;;;;;5008036;28;20165;-83
2023/09/04 05:48:14;;;;;;;3.60;2.00;;;21.40;97.10;;;;;;5038856;28;20235;-83
2023/09/04 05:50:40;;;;;;;2.10;1.90;;;21.40;97.10;;;;;;5005606;28;20521;-83
2023/09/04 05:53:06;;;;;;;2.13;1.93;;;21.40;97.10;;;;;;5040310;28;20216;-83
2023/09/04 05:55:35;;;;;;;2.00;1.90;;;21.40;97.20;;;;;;5023879;28;20203;-83
2023/09/04 05:58:01;;;;;;;2.77;2.20;;;21.30;97.40;;;;;;5005327;28;20211;-83
2023/09/04 06:00:27;;;;;;;2.40;1.80;;;21.30;97.60;;;;;;5021339;28;20196;-83
2023/09/04 06:02:54;;;;;;;2.10;1.90;;;21.30;97.80;;;;;;5002165;28;20288;-83
2023/09/04 06:05:21;;;;;;;2.17;1.90;;;21.30;97.80;;;;;;5003332;28;20387;-83
2023/09/04 06:07:47;;;;;;;2.33;2.00;;;21.20;97.50;;;;;;5003144;28;20515;-83
2023/09/04 06:10:14;;;;;;;2.10;1.90;;;21.20;97.60;;;;;;5005004;28;20190;-83
2023/09/04 06:12:39;;;;;;;2.20;2.00;;;21.20;97.60;;;;;;5020869;28;20169;-84
2023/09/04 06:15:06;;;;;;;2.50;2.00;;;21.30;97.60;;;;;;5007450;28;20257;-83
2023/09/04 06:17:32;;;;;;;3.70;2.00;;;21.30;97.60;;;;;;5006217;28;20188;-83
2023/09/04 06:19:58;;;;;;;2.83;2.03;;;21.30;97.60;;;;;;5007936;28;20196;-83
2023/09/04 06:22:24;;;;;;;3.00;2.50;;;21.30;97.50;;;;;;5008356;28;20184;-83
2023/09/04 06:24:50;;;;;;;2.27;2.07;;;21.30;97.50;;;;;;5006712;28;20335;-83
2023/09/04 06:27:16;;;;;;;3.57;2.00;;;21.40;97.40;;;;;;5006682;28;20169;-83
2023/09/04 06:29:41;;;;;;;3.83;2.27;;;21.40;97.30;;;;;;5023477;28;20177;-83
2023/09/04 06:32:07;;;;;;;3.40;2.10;;;21.40;97.20;;;;;;5006146;28;20208;-83
2023/09/04 06:34:33;;;;;;;3.60;2.07;;;21.50;97.10;;;;;;5024029;28;20177;-83
2023/09/04 06:36:59;;;;;;;3.40;2.70;;;21.60;97.00;;;;;;5004354;28;20231;-83
2023/09/04 06:39:24;;;;;;;4.70;2.43;;;21.60;96.90;;;;;;5004066;28;20240;-84
2023/09/04 06:41:50;;;;;;;3.97;2.90;;;21.70;96.70;;;;;;5004588;28;20169;-83
2023/09/04 06:44:16;;;;;;;5.90;3.73;;;21.70;96.60;;;;;;5004079;28;20173;-83
2023/09/04 06:46:42;;;;;;;4.13;3.20;;;21.80;97.10;;;;;;5023283;28;20510;-83
2023/09/04 06:49:08;;;;;;;4.97;2.97;;;21.80;97.10;;;;;;5007566;28;20554;-83
2023/09/04 06:51:34;;;;;;;5.33;2.90;;;21.90;97.10;;;;;;5058201;28;20199;-84
2023/09/04 06:54:00;;;;;;;5.33;3.07;;;21.90;97.30;;;;;;5009326;28;20185;-84
2023/09/04 06:56:25;;;;;;;5.47;3.37;;;22.00;96.90;;;;;;5022912;28;20420;-84
2023/09/04 06:58:52;;;;;;;4.33;2.80;;;22.10;96.80;;;;;;5005973;28;20420;-84
2023/09/04 07:01:17;;;;;;;7.50;3.40;;;22.10;96.70;;;;;;5022786;28;20210;-84
2023/09/04 07:03:44;;;;;;;5.60;3.47;;;22.20;96.70;;;;;;5025467;28;20471;-84
2023/09/04 07:06:17;;;;;;;4.57;3.60;;;22.20;96.60;;;;;;5007510;28;20169;-84
2023/09/04 07:08:43;;;;;;;4.93;3.60;;;22.30;96.50;;;;;;5010591;28;20192;-83
2023/09/04 07:11:09;;;;;;;5.53;3.60;;;22.40;96.30;;;;;;5009266;28;20695;-84
2023/09/04 07:13:36;;;;;;;4.37;3.27;;;22.40;96.10;;;;;;5007846;28;20173;-84
2023/09/04 07:16:02;;;;;;;5.47;3.47;;;22.50;95.90;;;;;;5007458;28;20414;-84
2023/09/04 07:18:28;;;;;;;5.13;3.63;;;22.60;95.70;;;;;;5006980;28;20176;-83
2023/09/04 07:20:54;;;;;;;5.47;3.83;;;22.70;95.70;;;;;;5026266;28;20200;-83
2023/09/04 07:23:23;;;;;;;5.63;3.80;;;22.80;95.70;;;;;;5006656;28;20718;-83
2023/09/04 07:25:59;;;;;;;7.00;3.90;;;22.90;95.40;;;;;;5025910;28;20226;-83
2023/09/04 07:28:26;;;;;;;6.77;4.30;;;23.10;95.10;;;;;;5026036;28;20168;-84
2023/09/04 07:31:19;;;;;;;9.87;5.00;;;23.30;95.00;;;;;;5024696;28;20172;-84
2023/09/04 07:33:49;;;;;;;10.23;4.40;;;23.40;94.50;;;;;;5021756;28;20236;-84
2023/09/04 07:36:16;;;;;;;9.30;4.23;;;23.70;93.90;;;;;;5002808;28;20528;-84
2023/09/04 07:38:43;;;;;;;7.53;3.93;;;24.00;92.80;;;;;;5003643;28;20181;-83
2023/09/04 07:41:15;;;;;;;6.53;3.80;;;24.40;91.50;;;;;;5037354;28;20546;-84
2023/09/04 07:43:46;;;;;;;8.00;4.50;;;24.70;90.40;;;;;;5006333;28;20453;-83
2023/09/04 07:46:12;;;;;;;7.30;4.10;;;24.90;88.90;;;;;;5023127;28;20169;-83
2023/09/04 07:48:38;;;;;;;5.27;3.40;;;25.10;87.80;;;;;;5006335;28;20199;-84
2023/09/04 07:51:15;;;;;;;6.47;3.90;;;25.20;86.50;;;;;;5009039;28;20173;-83
2023/09/04 07:53:41;;;;;;;5.25;3.45;;;25.30;85.50;;;;;;5010271;28;20168;-84
2023/09/04 07:56:15;;;;;;;5.38;3.40;;;25.50;84.50;;;;;;5043314;28;20232;-83
2023/09/04 07:58:41;;;;;;;5.15;3.53;;;25.60;82.60;;;;;;4999669;28;20233;-83
2023/09/04 08:01:13;;;;;;;5.18;3.67;;;25.80;81.80;;;;;;5016741;28;20219;-84
2023/09/04 08:03:45;;;;;;;4.03;3.45;;;25.90;80.90;;;;;;5014585;28;20570;-84
2023/09/04 08:06:11;;;;;;;6.97;3.70;;;26.00;80.00;;;;;;5012501;28;20192;-83
2023/09/04 08:08:37;;;;;;;5.80;3.70;;;26.00;79.30;;;;;;5012439;28;20468;-84
2023/09/04 08:11:03;;;;;;;5.40;3.33;;;26.10;79.00;;;;;;5011599;28;20177;-83
2023/09/04 08:13:35;;;;;;;4.60;3.70;;;26.20;78.20;;;;;;5010589;28;20192;-84
2023/09/04 08:16:01;;;;;;;4.85;3.30;;;26.30;78.10;;;;;;4992220;28;20486;-84
2023/09/04 08:18:26;;;;;;;4.43;3.30;;;26.40;77.90;;;;;;5025482;28;20169;-84
2023/09/04 08:20:52;;;;;;;4.53;3.38;;;26.40;77.60;;;;;;5007134;28;20464;-84
2023/09/04 08:23:18;;;;;;;5.40;3.58;;;26.40;77.40;;;;;;5004922;28;20299;-83
2023/09/04 08:25:43;;;;;;;5.25;3.40;;;26.50;77.20;;;;;;5006495;28;20338;-84
2023/09/04 08:28:09;;;;;;;5.22;3.53;;;26.60;77.10;;;;;;5026030;28;20352;-83
2023/09/04 08:30:35;;;;;;;3.97;3.45;;;26.60;76.30;;;;;;5028741;28;20243;-83
2023/09/04 08:33:01;;;;;;;5.03;3.17;;;26.70;76.00;;;;;;5010285;28;20393;-83
2023/09/04 08:35:28;;;;;;;4.03;3.22;;;26.80;75.80;;;;;;5009719;28;20169;-84
2023/09/04 08:37:55;;;;;;;4.78;3.42;;;26.90;75.40;;;;;;5012177;28;20366;-83
2023/09/04 08:40:21;;;;;;;3.38;3.08;;;27.00;74.90;;;;;;5011865;28;20511;-83
2023/09/04 08:42:49;;;;;;;3.75;3.35;;;27.10;74.10;;;;;;5028893;28;20628;-83
2023/09/04 08:45:17;;;;;;;4.38;3.20;;;27.20;73.20;;;;;;5010473;28;20199;-84
2023/09/04 08:47:44;;;;;;;5.82;3.45;;;27.40;72.30;;;;;;5009525;28;20414;-83
2023/09/04 08:50:13;;;;;;;4.60;3.10;;;27.50;72.10;;;;;;5010595;28;20177;-83
2023/09/04 08:52:40;;;;;;;4.45;3.30;;;27.50;71.80;;;;;;5009488;28;20169;-83
2023/09/04 08:55:18;;;;;;;5.57;2.97;;;27.70;71.10;;;;;;5027807;28;20180;-84
2023/09/04 08:57:44;;;;;;;4.22;3.08;;;27.70;70.60;;;;;;5010978;28;20277;-83
2023/09/04 09:00:10;;;;;;;4.53;3.50;;;27.80;70.60;;;;;;5028612;28;20204;-83
2023/09/04 09:02:44;;;;;;;4.50;3.00;;;27.70;70.50;;;;;;5011138;28;20175;-83
2023/09/04 09:05:13;;;;;;;3.40;3.03;;;27.90;69.60;;;;;;5012138;28;20479;-83
2023/09/04 09:07:49;;;;;;;3.47;3.13;;;28.20;68.90;;;;;;5011491;28;20571;-83
2023/09/04 09:10:19;;;;;;;3.78;3.10;;;28.10;68.20;;;;;;5026949;28;20180;-83
2023/09/04 09:12:45;;;;;;;5.25;3.13;;;28.20;68.70;;;;;;5007472;28;20438;-83
2023/09/04 09:15:11;;;;;;;5.63;3.25;;;28.30;67.90;;;;;;5008467;28;20440;-83
2023/09/04 09:17:58;;;;;;;3.22;2.92;;;28.30;67.30;;;;;;5023513;28;20231;-83
2023/09/04 09:20:34;;;;;;;5.68;2.97;;;28.40;66.70;;;;;;5009103;28;20219;-83
2023/09/04 09:23:07;;;;;;;3.70;2.83;;;28.60;66.30;;;;;;5026124;28;20188;-83
2023/09/04 09:25:34;;;;;;;4.05;2.78;;;28.60;65.80;;;;;;5024653;28;20173;-84
2023/09/04 09:28:03;;;;;;;3.35;3.03;;;28.70;65.30;;;;;;5024919;28;20577;-83
2023/09/04 09:30:34;;;;;;;3.42;2.80;;;28.90;64.80;;;;;;5042405;28;20587;-83
2023/09/04 09:33:03;;;;;;;2.75;2.50;;;28.60;64.90;;;;;;5026637;28;20173;-83
2023/09/04 09:35:31;;;;;;;5.88;3.00;;;28.80;64.90;;;;;;5026978;28;20296;-83
2023/09/04 09:38:00;;;;;;;3.80;2.65;;;28.80;65.10;;;;;;5009316;28;20212;-83
2023/09/04 09:40:25;;;;;;;4.13;2.70;;;28.80;64.80;;;;;;5026483;28;20215;-83
2023/09/04 09:42:52;;;;;;;2.95;2.67;;;28.80;64.60;;;;;;5040666;28;20410;-83
2023/09/04 09:45:18;;;;;;;3.20;2.90;;;28.90;64.20;;;;;;5006710;28;20195;-83
2023/09/04 09:47:44;;;;;;;3.20;2.90;;;28.80;64.00;;;;;;5008966;28;20300;-84
2023/09/04 09:50:10;;;;;;;2.80;2.60;;;28.90;64.00;;;;;;5007158;28;20662;-84
2023/09/04 09:52:36;;;;;;;4.03;3.17;;;28.80;64.30;;;;;;5005436;28;20177;-84
2023/09/04 09:55:03;;;;;;;3.88;2.78;;;28.70;64.60;;;;;;5008132;28;20215;-83
2023/09/04 09:57:31;;;;;;;2.95;2.60;;;28.50;65.40;;;;;;5007931;28;20357;-83
2023/09/04 09:59:57;;;;;;;2.92;2.30;;;28.30;65.90;;;;;;5008444;28;20204;-84
2023/09/04 10:02:26;;;;;;;3.05;2.75;;;28.20;66.30;;;;;;5008940;28;20180;-84
2023/09/04 10:04:53;;;;;;;3.10;2.78;;;27.90;67.10;;;;;;5027171;28;20173;-84
2023/09/04 10:07:27;;;;;;;3.47;2.63;;;27.60;68.50;;;;;;5008778;28;20195;-84
2023/09/04 10:10:03;;;;;;;2.80;2.53;;;27.50;69.50;;;;;;5025802;28;20263;-84
2023/09/04 10:12:50;;;;;;;2.88;2.58;;;27.30;70.50;;;;;;5006977;28;20559;-84
2023/09/04 10:15:22;;;;;;;2.95;2.55;;;27.10;71.90;;;;;;5007270;28;20172;-84
2023/09/04 10:18:03;;;;;;;3.17;2.63;;;27.00;72.80;;;;;;5017279;28;20212;-83
2023/09/04 10:20:29;;;;;;;2.72;2.53;;;26.90;73.30;;;;;;5010173;28;20200;-84
2023/09/04 10:23:11;;;;;;;4.15;2.70;;;26.80;74.30;;;;;;5041016;28;20169;-83
2023/09/04 10:25:58;;;;;;;2.63;2.42;;;26.80;74.70;;;;;;5008791;28;20157;-84
2023/09/04 10:28:45;;;;;;;3.00;2.45;;;26.80;75.00;;;;;;5042106;28;20215;-83
2023/09/04 10:31:12;;;;;;;2.53;2.30;;;26.70;75.80;;;;;;5026871;28;20169;-85
2023/09/04 10:33:38;;;;;;;4.15;2.60;;;26.70;76.60;;;;;;5005737;28;20188;-85
2023/09/04 10:36:05;;;;;;;2.70;2.50;;;26.70;76.60;;;;;;5006987;28;20528;-84
2023/09/04 10:38:31;;;;;;;2.85;2.30;;;26.60;76.80;;;;;;5009942;28;20177;-84
2023/09/04 10:40:57;;;;;;;2.67;2.42;;;26.70;76.40;;;;;;5026036;28;20478;-83
2023/09/04 10:43:41;;;;;;;2.58;2.38;;;26.70;77.00;;;;;;5024638;28;20165;-83
2023/09/04 10:46:12;;;;;;;2.53;2.30;;;26.60;77.60;;;;;;5006968;28;20661;-83
2023/09/04 10:48:42;;;;;;;3.70;2.53;;;26.50;78.30;;;;;;5021986;28;20306;-83
2023/09/04 10:51:37;;;;;;;2.28;2.08;;;26.40;78.80;;;;;;5021209;28;20555;-83
2023/09/04 10:54:17;;;;;;;2.40;2.20;;;26.50;78.90;;;;;;5003787;28;21119;-83
2023/09/04 10:56:57;;;;;;;2.42;2.22;;;26.50;79.00;;;;;;5037532;28;20184;-83
2023/09/04 10:59:23;;;;;;;2.78;2.50;;;26.50;79.40;;;;;;5038354;28;20169;-83
2023/09/04 11:01:49;;;;;;;2.42;1.90;;;26.50;79.40;;;;;;5022826;28;20301;-84
2023/09/04 11:04:42;;;;;;;2.40;2.20;;;26.40;79.70;;;;;;5043722;28;20464;-83
2023/09/04 11:07:26;;;;;;;3.33;2.40;;;26.40;80.30;;;;;;5025048;28;20168;-83
2023/09/04 11:09:52;;;;;;;2.45;2.13;;;26.40;80.60;;;;;;5042745;28;20176;-83
2023/09/04 11:12:25;;;;;;;2.42;2.22;;;26.40;80.80;;;;;;5038715;28;20258;-83
2023/09/04 11:14:55;;;;;;;2.88;2.00;;;26.30;81.10;;;;;;5018528;28;20211;-84
2023/09/04 11:17:31;;;;;;;2.15;1.95;;;26.30;81.80;;;;;;5024664;28;20276;-83
2023/09/04 11:20:00;;;;;;;2.40;2.20;;;26.20;82.90;;;;;;5027729;28;20286;-83
2023/09/04 11:22:27;;;;;;;2.97;2.40;;;26.20;83.10;;;;;;5026804;28;20165;-83
2023/09/04 11:24:54;;;;;;;2.53;2.33;;;26.10;83.50;;;;;;5026638;28;20337;-83
2023/09/04 11:27:24;;;;;;;2.17;1.98;;;26.10;84.20;;;;;;5026526;28;20607;-83
2023/09/04 11:29:50;;;;;;;2.35;2.05;;;26.00;84.90;;;;;;5024349;28;20350;-83
2023/09/04 11:32:17;;;;;;;2.73;2.03;;;26.00;85.30;;;;;;5028078;28;20467;-83
2023/09/04 11:34:47;;;;;;;2.77;2.27;;;26.00;85.30;;;;;;5047435;28;20584;-83
2023/09/04 11:37:13;;;;;;;2.43;2.20;;;26.00;85.30;;;;;;5046086;28;20172;-83
2023/09/04 11:39:56;;;;;;;2.30;2.10;;;26.00;85.60;;;;;;5027520;28;20310;-84
2023/09/04 11:42:22;;;;;;;2.20;2.00;;;25.90;85.90;;;;;;5027152;28;20204;-83
2023/09/04 11:44:49;;;;;;;2.37;2.17;;;25.90;86.20;;;;;;5028581;28;20164;-83
2023/09/04 11:47:16;;;;;;;2.20;2.00;;;25.90;86.40;;;;;;5046388;28;20179;-83
2023/09/04 11:49:43;;;;;;;2.67;2.20;;;25.90;86.50;;;;;;5027536;28;20306;-83
2023/09/04 11:52:11;;;;;;;2.80;2.20;;;25.90;86.60;;;;;;5043976;28;20203;-83
2023/09/04 11:54:36;;;;;;;2.40;2.00;;;25.80;87.00;;;;;;5025025;28;20202;-84
2023/09/04 11:57:03;;;;;;;2.27;2.07;;;25.90;87.20;;;;;;5025132;28;20188;-83
2023/09/04 11:59:36;;;;;;;2.20;2.00;;;25.90;87.20;;;;;;5025750;28;20203;-83
2023/09/04 12:02:02;;;;;;;1.90;1.80;;;25.90;87.50;;;;;;5043718;28;20429;-83
2023/09/04 12:04:31;;;;;;;2.50;2.00;;;25.80;87.70;;;;;;5026789;28;20176;-83
2023/09/04 12:07:07;;;;;;;2.13;1.90;;;25.80;88.20;;;;;;5027899;28;20706;-83
2023/09/04 12:09:36;;;;;;;2.10;1.90;;;25.80;88.10;;;;;;5043264;28;20192;-84
2023/09/04 12:12:05;;;;;;;2.33;2.00;;;25.80;88.40;;;;;;5024701;28;20172;-84
2023/09/04 12:14:32;;;;;;;2.40;1.80;;;25.80;88.50;;;;;;5023991;28;20289;-83
2023/09/04 12:16:59;;;;;;;2.77;2.00;;;25.70;88.50;;;;;;5044975;28;20589;-83
2023/09/04 12:19:26;;;;;;;2.67;2.10;;;25.70;88.70;;;;;;5026390;28;20667;-83
2023/09/04 12:21:51;;;;;;;2.17;1.83;;;25.70;89.10;;;;;;5025363;28;20176;-83
2023/09/04 12:24:18;;;;;;;1.80;1.70;;;25.70;89.30;;;;;;5045435;28;20169;-83
2023/09/04 12:26:48;;;;;;;2.37;2.03;;;25.70;89.30;;;;;;5028031;28;20342;-83
2023/09/04 12:29:13;;;;;;;2.33;1.97;;;25.70;89.40;;;;;;5033022;28;20185;-83
2023/09/04 12:31:43;;;;;;;2.20;2.00;;;25.70;89.40;;;;;;5005652;28;20177;-83
2023/09/04 12:34:10;;;;;;;2.30;2.10;;;25.70;89.90;;;;;;5024108;28;20266;-83
2023/09/04 12:36:36;;;;;;;2.17;1.97;;;25.70;89.80;;;;;;5025542;28;20177;-83
2023/09/04 12:39:01;;;;;;;2.37;1.97;;;25.70;90.00;;;;;;5024177;28;20425;-83
2023/09/04 12:41:28;;;;;;;1.77;1.67;;;25.70;89.80;;;;;;5006322;28;20212;-83
2023/09/04 12:43:54;;;;;;;1.97;1.73;;;25.70;89.80;;;;;;5007887;28;20173;-83
2023/09/04 12:46:20;;;;;;;1.70;1.60;;;25.60;89.70;;;;;;5027804;28;20203;-83
2023/09/04 12:48:45;;;;;;;2.30;1.60;;;25.70;90.00;;;;;;5027893;28;20256;-82
2023/09/04 12:51:11;;;;;;;1.83;1.70;;;25.60;89.90;;;;;;5025063;28;20181;-83
2023/09/04 12:53:38;;;;;;;1.70;1.60;;;25.60;90.00;;;;;;5009171;28;20210;-83